Aérodrome :
LOGIN :

S'inscrire | Disclaimer

   EN    FR    IT 

 










Légende :    VFR   VFR Marginal   IFR   IFR Intensif   IFR Très Intensif
Visi : 
Plafond : 
>= 8 km
>= 3000ft
5 à 8 km
1000 à 3000 ft
1500m à 5 km
500 à 1000 ft
800 à 1500m
200 à 500 ft
< 800m
< 200 ft
Symboles :   Orages  Brouillard  Fortes neiges  Fortes précipitations  Vent > 20 kt
SIGMETs :   Divers  Orages  Givrage  Turbulence  Onde Orograph.  Cendres Volcan.






- Altitude de l'aérodrome : 289 ft
- Code IATA : ZAD


LDZD - Zadar

DERNIER METAR :
  • 050400Z 18010KT 140V230 6000 RA FEW020 BKN030 18/17 Q1001 TEMPO 15020G30KT

METARs EXPIRÉS :
  • 050330Z 15014KT 120V190 9999 -RA FEW030 SCT040 18/16 Q0999 TEMPO 15020G30KT
  • 050300Z 14018KT 110V170 9999 FEW030 SCT040 18/16 Q0998 TEMPO VRB15G25KT 2000 TSRA SCT020CB BKN025
  • 050230Z 13019KT 100V160 9999 FEW030 18/16 Q0998 TEMPO VRB15G25KT 2000 TSRA SCT020CB BKN025
  • 050200Z 14018KT 110V170 9999 FEW030 SCT040 18/16 Q0998 TEMPO VRB15G25KT 2000 TSRA SCT020CB BKN025
  • 050130Z 13017KT 100V170 9999 -RA FEW030 SCT040 17/16 Q0998

TAF TAF LDZD
Valide du 05 à 00h jusqu'au 06 à 00h UTC


042325Z 0500/0600 15018KT 9999 SCT050 TX20/0513Z TN16/0523Z
PROB40
TEMPO 0500/0505 15022G32KT
TEMPO 0500/0518 4000 SHRA SCT010 FEW020TCU BKN025
PROB30
TEMPO 0500/0515 VRB15G25KT 2000 TSRA SCT010 SCT020CB BKN025
BECMG 0505/0507 22010KT
BECMG 0512/0514 15014KT



MET'MAP, la Météo Aéronautique d'un coup d'oeil ! - Copyright ORBIFLY Décembre 2007 - Disclaimer

ORBIFLY MET'MAP TEAM :

Programmation & Développement : Alexandra Zaïnal
Sur une idée originale de : Baudouin d'Aumeries
Assistance à la programmation : Marc-Olivier Méhu
Soutien technique & logistique : Manuel Goepfert

Contact : metmap@orbifly.com




SOURCES & CREDITS :

   NOAA